createdAt,value
2023-03-14T00:01:46.723Z,11.90
2023-03-14T00:04:18.641Z,11.90
2023-03-14T00:06:50.763Z,11.90
2023-03-14T00:09:22.930Z,11.80
2023-03-14T00:11:55.262Z,11.90
2023-03-14T00:14:27.100Z,11.90
2023-03-14T00:16:58.947Z,12.00
2023-03-14T00:19:30.782Z,12.00
2023-03-14T00:22:02.774Z,11.90
2023-03-14T00:24:34.840Z,11.90
2023-03-14T00:27:06.715Z,11.90
2023-03-14T00:29:38.624Z,11.80
2023-03-14T00:32:54.292Z,11.80
2023-03-14T00:35:26.305Z,11.90
2023-03-14T00:37:58.584Z,12.00
2023-03-14T00:40:30.624Z,12.00
2023-03-14T00:43:02.538Z,12.00
2023-03-14T00:45:34.389Z,12.00
2023-03-14T00:48:06.343Z,12.00
2023-03-14T00:50:38.170Z,11.90
2023-03-14T00:53:10.177Z,11.90
2023-03-14T00:55:43.633Z,11.90
2023-03-14T00:58:17.459Z,12.00
2023-03-14T01:00:49.374Z,12.00
2023-03-14T01:03:22.717Z,12.00
2023-03-14T01:05:55.433Z,12.00
2023-03-14T01:08:27.312Z,12.00
2023-03-14T01:10:59.900Z,12.00
2023-03-14T01:13:31.712Z,11.90
2023-03-14T01:16:07.527Z,11.90
2023-03-14T01:18:47.038Z,11.90
2023-03-14T01:21:25.471Z,11.90
2023-03-14T01:23:59.179Z,11.90
2023-03-14T01:26:33.597Z,12.00
2023-03-14T01:29:05.940Z,12.00
2023-03-14T01:31:40.686Z,12.20
2023-03-14T01:34:12.593Z,12.20
2023-03-14T01:36:44.777Z,12.20
2023-03-14T01:39:17.386Z,12.00
2023-03-14T01:41:49.286Z,12.00
2023-03-14T01:44:22.093Z,12.10
2023-03-14T01:46:53.959Z,12.10
2023-03-14T01:49:30.629Z,12.10
2023-03-14T01:52:27.339Z,12.10
2023-03-14T01:55:10.412Z,12.10
2023-03-14T01:58:06.099Z,12.00
2023-03-14T02:00:39.371Z,11.90
2023-03-14T02:03:17.551Z,11.90
2023-03-14T02:05:51.396Z,12.00
2023-03-14T02:08:28.481Z,12.10
2023-03-14T02:11:05.490Z,12.10
2023-03-14T02:14:15.430Z,12.10
2023-03-14T02:17:05.790Z,12.10
2023-03-14T02:20:13.343Z,12.10
2023-03-14T02:22:48.445Z,12.20
2023-03-14T02:25:25.490Z,12.10
2023-03-14T02:27:59.436Z,12.20
2023-03-14T02:30:33.839Z,12.30
2023-03-14T02:33:21.151Z,12.40
2023-03-14T02:36:07.037Z,12.50
2023-03-14T02:38:51.265Z,12.40
2023-03-14T02:41:24.532Z,12.40
2023-03-14T02:44:05.206Z,12.50
2023-03-14T02:46:37.183Z,12.40
2023-03-14T02:49:13.020Z,12.50
2023-03-14T02:51:47.632Z,12.50
2023-03-14T02:54:21.510Z,12.60
2023-03-14T02:56:54.441Z,12.60
2023-03-14T02:59:26.313Z,12.60
2023-03-14T03:02:02.793Z,12.60
2023-03-14T03:04:36.671Z,12.60
2023-03-14T03:07:08.925Z,12.60
2023-03-14T03:09:40.865Z,12.50
2023-03-14T03:12:12.894Z,12.50
2023-03-14T03:14:45.008Z,12.60
2023-03-14T03:17:17.094Z,12.60
2023-03-14T03:19:49.893Z,12.70
2023-03-14T03:22:22.935Z,12.80
2023-03-14T03:24:54.811Z,12.90
2023-03-14T03:27:26.606Z,12.90
2023-03-14T03:29:59.202Z,13.00
2023-03-14T03:32:31.900Z,13.00
2023-03-14T03:35:05.662Z,13.00
2023-03-14T03:37:40.568Z,13.00
2023-03-14T03:40:12.581Z,13.00
2023-03-14T03:42:44.665Z,13.10
2023-03-14T03:45:16.893Z,13.00
2023-03-14T03:47:56.515Z,13.10
2023-03-14T03:50:28.939Z,13.00
2023-03-14T03:53:01.136Z,13.10
2023-03-14T03:55:33.156Z,13.10
2023-03-14T03:58:05.279Z,13.10
2023-03-14T04:00:37.252Z,13.10
2023-03-14T04:03:09.465Z,13.00
2023-03-14T04:05:41.789Z,13.00
2023-03-14T04:08:15.331Z,13.00
2023-03-14T04:10:47.180Z,12.90
2023-03-14T04:13:27.555Z,12.90
2023-03-14T04:16:02.393Z,13.00
2023-03-14T04:18:34.593Z,12.90
2023-03-14T04:21:06.970Z,12.90
2023-03-14T04:23:48.769Z,12.80
2023-03-14T04:26:22.031Z,12.90
2023-03-14T04:28:54.329Z,12.80
2023-03-14T04:31:28.045Z,12.80
2023-03-14T04:33:59.933Z,12.80
2023-03-14T04:36:41.059Z,12.80
2023-03-14T04:39:18.917Z,12.80
2023-03-14T04:41:58.533Z,12.80
2023-03-14T04:44:30.633Z,12.70
2023-03-14T04:47:03.250Z,12.70
2023-03-14T04:49:35.833Z,12.70
2023-03-14T04:52:08.229Z,12.70
2023-03-14T04:58:46.574Z,12.70
2023-03-14T05:01:22.225Z,12.70
2023-03-14T05:04:12.523Z,12.70
2023-03-14T05:07:01.512Z,12.70
2023-03-14T05:09:51.795Z,12.60
2023-03-14T05:12:42.081Z,12.70
2023-03-14T05:15:49.749Z,12.70
2023-03-14T05:18:40.711Z,12.60
2023-03-14T05:21:32.908Z,12.60
2023-03-14T05:24:20.363Z,12.60
2023-03-14T05:27:05.539Z,12.70
2023-03-14T05:30:06.266Z,12.70
2023-03-14T05:32:40.956Z,12.60
2023-03-14T05:35:23.881Z,12.70
2023-03-14T05:38:04.749Z,12.70
2023-03-14T05:40:48.565Z,12.70
2023-03-14T05:43:41.288Z,12.70
2023-03-14T05:46:32.103Z,12.80
2023-03-14T05:49:18.857Z,12.70
2023-03-14T05:51:58.443Z,12.70
2023-03-14T05:54:53.340Z,12.80
2023-03-14T05:57:57.955Z,12.80
2023-03-14T06:00:52.672Z,12.80
2023-03-14T06:03:44.623Z,12.60
2023-03-14T06:06:17.751Z,12.60
2023-03-14T06:08:49.712Z,12.40
2023-03-14T06:11:21.927Z,12.40
2023-03-14T06:13:53.875Z,12.30
2023-03-14T06:16:25.723Z,12.30
2023-03-14T06:18:59.553Z,12.20
2023-03-14T06:21:31.511Z,12.10
2023-03-14T06:24:04.672Z,12.00
2023-03-14T06:26:41.108Z,12.00
2023-03-14T06:29:14.490Z,11.90
2023-03-14T06:31:47.096Z,11.90
2023-03-14T06:34:21.770Z,11.90
2023-03-14T06:36:53.767Z,11.90
2023-03-14T06:39:26.069Z,11.90
2023-03-14T06:42:07.041Z,11.80
2023-03-14T06:44:39.676Z,11.80
2023-03-14T06:47:11.685Z,11.80
2023-03-14T06:49:47.168Z,11.80
2023-03-14T06:52:19.793Z,11.80
2023-03-14T06:54:52.033Z,11.90
2023-03-14T06:57:26.745Z,11.90
2023-03-14T06:59:58.647Z,11.90
2023-03-14T07:02:42.351Z,11.90
2023-03-14T07:05:24.859Z,11.80
2023-03-14T07:07:57.496Z,11.90
2023-03-14T07:10:29.849Z,11.80
2023-03-14T07:13:01.813Z,11.80
2023-03-14T07:15:38.240Z,11.80
2023-03-14T07:18:14.313Z,11.80
2023-03-14T07:20:47.420Z,11.80
2023-03-14T07:23:20.646Z,11.80
2023-03-14T07:25:55.137Z,11.70
2023-03-14T07:28:29.804Z,11.60
2023-03-14T07:31:12.915Z,11.50
2023-03-14T07:33:45.269Z,11.50
2023-03-14T07:36:17.627Z,11.50
2023-03-14T07:38:51.096Z,11.50
2023-03-14T07:41:40.797Z,11.50
2023-03-14T07:44:30.919Z,11.50
2023-03-14T07:47:03.034Z,11.50
2023-03-14T07:49:34.960Z,11.40
2023-03-14T07:52:06.816Z,11.40
2023-03-14T07:54:38.674Z,11.60
2023-03-14T07:57:10.556Z,11.60
2023-03-14T07:59:42.416Z,11.80
2023-03-14T08:02:14.652Z,11.80
2023-03-14T08:04:46.648Z,11.80
2023-03-14T08:07:18.536Z,11.70
2023-03-14T08:09:50.410Z,11.60
2023-03-14T08:12:22.249Z,11.70
2023-03-14T08:14:54.578Z,11.60
2023-03-14T08:17:28.800Z,11.50
2023-03-14T08:20:00.777Z,11.50
2023-03-14T08:22:32.667Z,11.60
2023-03-14T08:25:05.293Z,11.60
2023-03-14T08:27:39.694Z,11.70
2023-03-14T08:30:13.961Z,11.70
2023-03-14T08:32:45.956Z,11.60
2023-03-14T08:35:17.893Z,11.60
2023-03-14T08:37:49.847Z,11.50
2023-03-14T08:40:21.743Z,11.60
2023-03-14T08:42:53.664Z,11.70
2023-03-14T08:45:26.235Z,11.70
2023-03-14T08:47:59.863Z,11.80
2023-03-14T08:50:31.745Z,11.80
2023-03-14T08:53:03.722Z,11.80
2023-03-14T08:55:35.633Z,11.70
2023-03-14T08:58:07.621Z,11.60
2023-03-14T09:00:39.614Z,11.60
2023-03-14T09:03:11.576Z,11.60
2023-03-14T09:05:43.538Z,11.60
2023-03-14T09:08:15.598Z,11.60
2023-03-14T09:10:47.534Z,11.50
2023-03-14T09:13:19.364Z,11.50
2023-03-14T09:15:57.118Z,11.50
2023-03-14T09:18:30.019Z,11.50
2023-03-14T09:21:02.032Z,11.50
2023-03-14T09:23:34.024Z,11.60
2023-03-14T09:26:06.198Z,11.60
2023-03-14T09:28:38.298Z,11.70
2023-03-14T09:31:12.046Z,11.80
2023-03-14T09:33:44.010Z,11.80
2023-03-14T09:36:16.010Z,11.80
2023-03-14T09:38:47.989Z,11.70
2023-03-14T09:41:27.562Z,11.80
2023-03-14T09:47:56.549Z,11.80
2023-03-14T09:50:38.934Z,11.70
2023-03-14T09:53:16.729Z,11.70
2023-03-14T09:55:51.058Z,11.80
2023-03-14T09:58:24.823Z,11.90
2023-03-14T10:00:58.389Z,11.80
2023-03-14T10:07:00.429Z,11.90
2023-03-14T10:09:32.309Z,11.80
2023-03-14T10:12:10.365Z,11.90
2023-03-14T10:14:52.225Z,11.80
2023-03-14T10:17:24.448Z,11.80
2023-03-14T10:20:00.977Z,11.80
2023-03-14T10:22:33.730Z,11.80
2023-03-14T10:25:10.754Z,11.80
2023-03-14T10:27:42.802Z,11.70
2023-03-14T10:30:31.269Z,11.80
2023-03-14T10:33:19.286Z,11.80
2023-03-14T10:36:00.532Z,11.90
2023-03-14T10:38:34.854Z,11.80
2023-03-14T10:41:25.540Z,11.70
2023-03-14T10:44:02.308Z,11.60
2023-03-14T10:46:34.881Z,11.50
2023-03-14T10:49:38.182Z,11.60
2023-03-14T10:52:10.151Z,11.60
2023-03-14T10:54:42.149Z,11.70
2023-03-14T10:57:14.106Z,11.80
2023-03-14T10:59:46.314Z,11.70
2023-03-14T11:02:38.093Z,11.80
2023-03-14T11:05:39.862Z,11.80
2023-03-14T11:08:32.645Z,11.90
2023-03-14T11:11:30.592Z,12.10
2023-03-14T11:14:23.978Z,12.20
2023-03-14T11:17:18.216Z,12.30
2023-03-14T11:20:13.272Z,12.40
2023-03-14T11:22:58.888Z,12.40
2023-03-14T11:25:44.256Z,12.50
2023-03-14T11:28:38.674Z,12.50
2023-03-14T11:31:27.513Z,12.30
2023-03-14T11:34:07.683Z,12.20
2023-03-14T11:36:45.360Z,12.10
2023-03-14T11:39:19.270Z,12.20
2023-03-14T11:41:58.333Z,12.30
2023-03-14T11:44:40.290Z,12.30
2023-03-14T11:47:26.807Z,12.40
2023-03-14T11:50:24.167Z,12.40
2023-03-14T11:53:02.826Z,12.30
2023-03-14T11:55:37.652Z,12.50
2023-03-14T11:58:22.228Z,12.60
2023-03-14T12:00:56.338Z,12.70
2023-03-14T12:03:53.463Z,12.90
2023-03-14T12:06:47.006Z,12.80
2023-03-14T12:09:21.754Z,12.90
2023-03-14T12:12:02.928Z,12.90
2023-03-14T12:14:37.805Z,12.80
2023-03-14T12:17:34.831Z,12.70
2023-03-14T12:20:27.334Z,12.60
2023-03-14T12:23:13.074Z,12.60
2023-03-14T12:25:45.036Z,12.60
2023-03-14T12:28:21.299Z,12.50
2023-03-14T12:30:53.187Z,12.80
2023-03-14T12:33:29.626Z,12.90
2023-03-14T12:36:05.001Z,13.10
2023-03-14T12:38:36.891Z,13.00
2023-03-14T12:41:26.407Z,13.00
2023-03-14T12:44:18.238Z,13.10
2023-03-14T12:46:50.412Z,13.10
2023-03-14T12:49:29.945Z,13.10
2023-03-14T12:52:03.178Z,13.10
2023-03-14T12:54:43.969Z,13.10
2023-03-14T12:57:28.058Z,13.10
2023-03-14T13:00:01.764Z,13.30
2023-03-14T13:02:44.392Z,13.70
2023-03-14T13:05:25.675Z,14.00
2023-03-14T13:08:01.247Z,14.20
2023-03-14T13:10:51.093Z,14.20
2023-03-14T13:13:26.782Z,14.40
2023-03-14T13:16:04.703Z,14.50
2023-03-14T13:18:48.785Z,14.70
2023-03-14T13:21:24.097Z,14.60
2023-03-14T13:24:02.173Z,14.60
2023-03-14T13:26:49.241Z,14.70
2023-03-14T13:29:26.333Z,14.80
2023-03-14T13:32:00.557Z,15.00
2023-03-14T13:34:34.765Z,15.00
2023-03-14T13:37:06.674Z,14.80
2023-03-14T13:39:41.070Z,14.50
2023-03-14T13:42:16.904Z,14.30
2023-03-14T13:44:49.118Z,14.20
2023-03-14T13:47:23.973Z,14.20
2023-03-14T13:49:55.995Z,14.20
2023-03-14T13:52:36.069Z,14.20
2023-03-14T13:55:17.070Z,14.10
2023-03-14T13:57:52.035Z,14.00
2023-03-14T14:00:30.429Z,13.90
2023-03-14T14:03:02.341Z,13.90
2023-03-14T14:05:38.570Z,13.90
2023-03-14T14:08:15.833Z,13.80
2023-03-14T14:10:50.353Z,13.70
2023-03-14T14:13:24.175Z,13.60
2023-03-14T14:15:56.723Z,13.70
2023-03-14T14:18:31.083Z,13.70
2023-03-14T14:21:03.930Z,13.70
2023-03-14T14:23:37.229Z,13.80
2023-03-14T14:26:09.429Z,13.80
2023-03-14T14:28:42.288Z,13.80
2023-03-14T14:31:24.127Z,13.80
2023-03-14T14:34:02.149Z,14.10
2023-03-14T14:36:50.314Z,14.00
2023-03-14T14:39:27.161Z,13.90
2023-03-14T14:41:59.219Z,13.90
2023-03-14T14:44:35.590Z,13.90
2023-03-14T14:47:07.482Z,13.90
2023-03-14T14:49:39.705Z,13.90
2023-03-14T14:52:42.435Z,13.80
2023-03-14T14:55:21.307Z,13.80
2023-03-14T14:57:55.611Z,13.90
2023-03-14T15:00:28.675Z,13.90
2023-03-14T15:03:01.607Z,13.90
2023-03-14T15:05:36.941Z,13.90
2023-03-14T15:08:12.312Z,13.80
2023-03-14T15:10:44.493Z,13.90
2023-03-14T15:13:16.456Z,13.90
2023-03-14T15:15:50.573Z,14.00
2023-03-14T15:18:31.015Z,14.00
2023-03-14T15:21:03.254Z,14.00
2023-03-14T15:23:35.189Z,14.00
2023-03-14T15:26:18.166Z,13.90
2023-03-14T15:28:50.589Z,13.80
2023-03-14T15:31:23.116Z,13.90
2023-03-14T15:33:55.147Z,13.70
2023-03-14T15:36:29.779Z,13.60
2023-03-14T15:39:01.890Z,13.50
2023-03-14T15:41:33.925Z,13.50
2023-03-14T15:44:05.929Z,13.60
2023-03-14T15:46:37.816Z,13.70
2023-03-14T15:49:10.125Z,13.80
2023-03-14T15:51:42.144Z,13.80
2023-03-14T15:54:14.166Z,13.80
2023-03-14T15:56:46.159Z,13.70
2023-03-14T15:59:18.141Z,13.50
2023-03-14T16:01:50.105Z,13.40
2023-03-14T16:04:22.120Z,13.50
2023-03-14T16:06:54.016Z,13.70
2023-03-14T16:09:27.303Z,13.70
2023-03-14T16:11:59.423Z,13.70
2023-03-14T16:14:31.475Z,13.70
2023-03-14T16:17:03.379Z,13.70
2023-03-14T16:19:35.342Z,13.70
2023-03-14T16:22:07.388Z,13.80
2023-03-14T16:24:40.460Z,13.70
2023-03-14T16:27:12.490Z,13.70
2023-03-14T16:29:44.522Z,13.80
2023-03-14T16:32:16.524Z,13.70
2023-03-14T16:34:48.599Z,13.60
2023-03-14T16:37:21.733Z,13.50
2023-03-14T16:40:11.671Z,13.40
2023-03-14T16:43:11.586Z,13.40
2023-03-14T16:45:38.113Z,13.40
2023-03-14T16:48:10.325Z,13.50
2023-03-14T16:50:43.017Z,13.30
2023-03-14T16:53:14.965Z,13.30
2023-03-14T16:55:47.013Z,13.30
2023-03-14T16:58:21.151Z,13.30
2023-03-14T17:00:53.503Z,13.20
2023-03-14T17:03:27.916Z,13.20
2023-03-14T17:05:59.870Z,13.30
2023-03-14T17:08:32.281Z,13.20
2023-03-14T17:11:04.394Z,13.20
2023-03-14T17:13:37.025Z,13.20
2023-03-14T17:16:10.034Z,13.10
2023-03-14T17:18:42.188Z,13.10
2023-03-14T17:21:14.223Z,13.00
2023-03-14T17:23:46.146Z,13.00
2023-03-14T17:26:18.901Z,13.10
2023-03-14T17:28:51.890Z,13.10
2023-03-14T17:31:24.257Z,13.10
2023-03-14T17:33:56.313Z,13.00
2023-03-14T17:36:30.786Z,12.90
2023-03-14T17:39:03.181Z,12.90
2023-03-14T17:41:35.135Z,12.80
2023-03-14T17:44:07.196Z,12.80
2023-03-14T17:46:39.684Z,12.80
2023-03-14T17:49:11.731Z,12.90
2023-03-14T17:51:44.092Z,13.00
2023-03-14T17:54:16.208Z,13.10
2023-03-14T17:56:49.043Z,13.00
2023-03-14T17:59:21.026Z,13.10
2023-03-14T18:01:53.130Z,13.00
2023-03-14T18:04:30.820Z,13.00
2023-03-14T18:07:02.910Z,13.00
2023-03-14T18:09:34.948Z,12.90
2023-03-14T18:12:08.720Z,12.80
2023-03-14T18:14:44.488Z,12.80
2023-03-14T18:17:16.715Z,12.80
2023-03-14T18:19:49.425Z,12.70
2023-03-14T18:22:21.342Z,12.60
2023-03-14T18:24:53.934Z,12.60
2023-03-14T18:27:25.970Z,12.50
2023-03-14T18:29:59.052Z,12.50
2023-03-14T18:32:31.657Z,12.50
2023-03-14T18:35:05.834Z,12.50
2023-03-14T18:37:38.994Z,12.50
2023-03-14T18:40:13.881Z,12.50
2023-03-14T18:42:45.977Z,12.50
2023-03-14T18:45:17.864Z,12.50
2023-03-14T18:47:49.861Z,12.50
2023-03-14T18:50:21.820Z,12.50
2023-03-14T18:52:56.770Z,12.50
2023-03-14T18:55:29.912Z,12.40
2023-03-14T18:58:01.952Z,12.40
2023-03-14T19:00:34.165Z,12.40
2023-03-14T19:03:06.190Z,12.40
2023-03-14T19:05:44.459Z,12.30
2023-03-14T19:08:16.527Z,12.40
2023-03-14T19:10:51.325Z,12.50
2023-03-14T19:13:31.129Z,12.60
2023-03-14T19:16:05.111Z,12.70
2023-03-14T19:18:37.255Z,12.70
2023-03-14T19:21:12.363Z,12.70
2023-03-14T19:23:49.209Z,12.70
2023-03-14T19:26:21.858Z,12.60
2023-03-14T19:28:55.352Z,12.70
2023-03-14T19:31:28.269Z,12.60
2023-03-14T19:34:02.873Z,12.50
2023-03-14T19:36:36.939Z,12.50
2023-03-14T19:39:08.856Z,12.40
2023-03-14T19:41:41.222Z,12.40
2023-03-14T19:44:13.350Z,12.40
2023-03-14T19:46:45.520Z,12.30
2023-03-14T19:49:17.936Z,12.30
2023-03-14T19:51:49.924Z,12.30
2023-03-14T19:54:23.226Z,12.40
2023-03-14T19:56:55.207Z,12.50
2023-03-14T19:59:27.045Z,12.50
2023-03-14T20:01:59.018Z,12.50
2023-03-14T20:04:31.092Z,12.40
2023-03-14T20:07:04.723Z,12.50
2023-03-14T20:09:36.657Z,12.50
2023-03-14T20:12:09.501Z,12.40
2023-03-14T20:14:41.601Z,12.30
2023-03-14T20:17:14.146Z,12.30
2023-03-14T20:19:46.243Z,12.20
2023-03-14T20:22:18.213Z,12.20
2023-03-14T20:24:52.770Z,12.10
2023-03-14T20:27:25.442Z,12.00
2023-03-14T20:29:59.340Z,12.00
2023-03-14T20:32:31.403Z,12.00
2023-03-14T20:35:03.762Z,12.00
2023-03-14T20:37:36.306Z,12.00
2023-03-14T20:40:12.451Z,12.00
2023-03-14T20:42:44.740Z,11.90
2023-03-14T20:45:17.184Z,11.90
2023-03-14T20:47:49.125Z,11.90
2023-03-14T20:50:22.206Z,11.90
2023-03-14T20:52:55.007Z,12.00
2023-03-14T20:55:27.031Z,12.00
2023-03-14T20:58:01.444Z,12.00
2023-03-14T21:00:34.513Z,12.00
2023-03-14T21:03:08.491Z,11.90
2023-03-14T21:05:47.298Z,11.80
2023-03-14T21:08:22.556Z,11.80
2023-03-14T21:10:55.878Z,11.70
2023-03-14T21:13:28.600Z,11.70
2023-03-14T21:16:02.659Z,11.80
2023-03-14T21:18:35.210Z,11.80
2023-03-14T21:21:08.112Z,11.80
2023-03-14T21:23:41.155Z,11.80
2023-03-14T21:26:12.990Z,11.80
2023-03-14T21:28:44.922Z,11.70
2023-03-14T21:31:16.794Z,11.70
2023-03-14T21:33:49.065Z,11.60
2023-03-14T21:36:21.395Z,11.60
2023-03-14T21:38:53.330Z,11.60
2023-03-14T21:41:25.175Z,11.50
2023-03-14T21:43:56.966Z,11.40
2023-03-14T21:46:28.964Z,11.30
2023-03-14T21:49:00.794Z,11.20
2023-03-14T21:51:35.670Z,11.10
2023-03-14T21:54:10.157Z,11.10
2023-03-14T21:56:43.686Z,11.10
2023-03-14T21:59:15.756Z,11.20
2023-03-14T22:01:47.672Z,11.20
2023-03-14T22:04:25.699Z,11.30
2023-03-14T22:06:57.488Z,11.20
2023-03-14T22:09:29.845Z,11.20
2023-03-14T22:12:02.094Z,11.20
2023-03-14T22:14:34.333Z,11.20
2023-03-14T22:17:06.232Z,11.20
2023-03-14T22:19:38.163Z,11.20
2023-03-14T22:22:10.214Z,11.20
2023-03-14T22:24:42.120Z,11.20
2023-03-14T22:27:14.039Z,11.20
2023-03-14T22:29:45.899Z,11.10
2023-03-14T22:32:17.754Z,11.10
2023-03-14T22:34:49.551Z,11.20
2023-03-14T22:37:22.963Z,11.20
2023-03-14T22:39:54.837Z,11.20
2023-03-14T22:42:26.818Z,11.20
2023-03-14T22:44:58.589Z,11.20
2023-03-14T22:47:30.381Z,11.20
2023-03-14T22:50:04.159Z,11.20
2023-03-14T22:52:35.956Z,11.10
2023-03-14T22:55:08.478Z,11.00
2023-03-14T22:57:41.201Z,10.90
2023-03-14T23:00:13.806Z,10.80
2023-03-14T23:02:45.824Z,10.80
2023-03-14T23:05:17.758Z,10.70
2023-03-14T23:07:49.567Z,10.60
2023-03-14T23:10:21.638Z,10.50
2023-03-14T23:12:57.493Z,10.40
2023-03-14T23:15:29.360Z,10.40
2023-03-14T23:18:01.286Z,10.30
2023-03-14T23:20:33.321Z,10.30
2023-03-14T23:23:08.341Z,10.30
2023-03-14T23:25:52.484Z,10.20
2023-03-14T23:28:25.437Z,10.20
2023-03-14T23:30:58.980Z,10.10
2023-03-14T23:33:31.350Z,10.10
2023-03-14T23:36:04.897Z,10.10
2023-03-14T23:38:36.724Z,10.00
2023-03-14T23:41:14.598Z,10.00
2023-03-14T23:43:47.764Z,10.10
2023-03-14T23:46:19.646Z,10.00
2023-03-14T23:48:52.524Z,10.00
2023-03-14T23:51:24.767Z,9.80
2023-03-14T23:53:56.612Z,9.70
2023-03-14T23:56:28.403Z,9.60
2023-03-14T23:59:00.358Z,9.60
